createdAt,value
2019-04-27T00:01:55.028Z,22.13
2019-04-27T00:04:25.452Z,19.70
2019-04-27T00:06:55.772Z,16.93
2019-04-27T00:09:33.972Z,15.90
2019-04-27T00:12:16.529Z,20.73
2019-04-27T00:14:43.983Z,18.23
2019-04-27T00:17:21.020Z,18.17
2019-04-27T00:19:49.078Z,14.13
2019-04-27T00:22:19.341Z,11.97
2019-04-27T00:24:48.047Z,14.30
2019-04-27T00:27:16.795Z,13.20
2019-04-27T00:29:45.492Z,13.97
2019-04-27T00:32:14.288Z,23.70
2019-04-27T00:34:43.871Z,16.20
2019-04-27T00:37:19.976Z,12.53
2019-04-27T00:39:50.288Z,14.47
2019-04-27T00:42:18.984Z,19.13
2019-04-27T00:44:47.691Z,15.40
2019-04-27T00:47:16.421Z,18.43
2019-04-27T00:49:45.123Z,23.60
2019-04-27T00:52:14.022Z,21.90
2019-04-27T00:54:44.142Z,18.07
2019-04-27T00:57:20.454Z,12.87
2019-04-27T00:59:59.551Z,14.23
2019-04-27T01:02:29.810Z,16.27
2019-04-27T01:04:58.502Z,24.43
2019-04-27T01:07:27.259Z,18.30
2019-04-27T01:09:55.889Z,14.47
2019-04-27T01:12:24.579Z,13.07
2019-04-27T01:14:53.597Z,17.67
2019-04-27T01:17:22.287Z,11.40
2019-04-27T01:19:50.993Z,18.53
2019-04-27T01:22:19.720Z,13.87
2019-04-27T01:24:49.217Z,21.57
2019-04-27T01:27:19.574Z,12.20
2019-04-27T01:29:49.995Z,13.27
2019-04-27T01:32:20.772Z,16.33
2019-04-27T01:34:49.458Z,18.27
2019-04-27T01:37:19.529Z,19.23
2019-04-27T01:39:50.346Z,13.97
2019-04-27T01:42:19.455Z,17.60
2019-04-27T01:44:49.594Z,18.50
2019-04-27T01:47:18.772Z,12.90
2019-04-27T01:49:49.390Z,19.80
2019-04-27T01:52:19.437Z,14.67
2019-04-27T01:54:49.515Z,16.50
2019-04-27T01:57:19.433Z,19.80
2019-04-27T01:59:48.939Z,14.50
2019-04-27T02:02:26.103Z,20.63
2019-04-27T02:04:59.383Z,11.67
2019-04-27T02:07:30.132Z,15.90
2019-04-27T02:09:58.932Z,15.53
2019-04-27T02:12:29.123Z,19.27
2019-04-27T02:14:58.851Z,17.97
2019-04-27T02:17:28.831Z,14.90
2019-04-27T02:19:59.420Z,21.67
2019-04-27T02:22:29.733Z,14.77
2019-04-27T02:24:59.114Z,20.10
2019-04-27T02:27:29.338Z,16.83
2019-04-27T02:30:05.724Z,12.37
2019-04-27T02:32:36.037Z,14.70
2019-04-27T02:35:06.502Z,20.50
2019-04-27T02:37:35.201Z,19.30
2019-04-27T02:40:05.395Z,16.07
2019-04-27T02:42:35.652Z,16.53
2019-04-27T02:45:05.055Z,16.80
2019-04-27T02:47:33.789Z,18.23
2019-04-27T02:50:02.412Z,19.03
2019-04-27T02:52:35.396Z,18.33
2019-04-27T02:55:05.018Z,18.90
2019-04-27T02:57:33.716Z,14.30
2019-04-27T03:00:02.411Z,14.97
2019-04-27T03:02:35.645Z,20.30
2019-04-27T03:05:04.946Z,17.67
2019-04-27T03:07:33.646Z,17.83
2019-04-27T03:10:02.887Z,15.60
2019-04-27T03:12:33.217Z,19.47
2019-04-27T03:15:06.209Z,17.77
2019-04-27T03:17:36.534Z,18.67
2019-04-27T03:20:14.842Z,16.30
2019-04-27T03:22:45.139Z,21.80
2019-04-27T03:25:15.928Z,22.23
2019-04-27T03:27:46.196Z,15.70
2019-04-27T03:30:16.041Z,17.10
2019-04-27T03:32:44.736Z,23.13
2019-04-27T03:35:14.148Z,18.27
2019-04-27T03:37:44.511Z,15.20
2019-04-27T03:40:13.419Z,20.07
2019-04-27T03:42:43.687Z,22.53
2019-04-27T03:45:12.547Z,21.73
2019-04-27T03:47:41.202Z,16.30
2019-04-27T03:50:12.076Z,15.20
2019-04-27T03:52:59.881Z,15.90
2019-04-27T03:55:30.658Z,14.07
2019-04-27T03:58:21.731Z,20.57
2019-04-27T04:00:52.136Z,11.30
2019-04-27T04:03:21.029Z,24.23
2019-04-27T04:05:52.050Z,17.43
2019-04-27T04:08:20.264Z,23.50
2019-04-27T04:10:50.529Z,19.30
2019-04-27T04:13:22.709Z,14.20
2019-04-27T04:15:52.822Z,17.60
2019-04-27T04:18:21.722Z,14.60
2019-04-27T04:20:50.681Z,13.53
2019-04-27T04:23:20.353Z,18.03
2019-04-27T04:25:50.034Z,15.53
2019-04-27T04:28:19.886Z,11.00
2019-04-27T04:30:50.183Z,11.13
2019-04-27T04:33:20.551Z,13.10
2019-04-27T04:35:49.982Z,15.73
2019-04-27T04:38:21.025Z,13.70
2019-04-27T04:40:51.290Z,18.53
2019-04-27T04:43:36.475Z,22.60
2019-04-27T04:46:23.259Z,21.97
2019-04-27T04:48:53.020Z,14.53
2019-04-27T04:51:21.722Z,13.50
2019-04-27T04:53:51.787Z,22.73
2019-04-27T04:56:20.682Z,17.23
2019-04-27T04:58:49.785Z,21.07
2019-04-27T05:01:19.667Z,23.67
2019-04-27T05:03:48.920Z,17.60
2019-04-27T05:06:18.991Z,17.60
2019-04-27T05:08:49.384Z,20.13
2019-04-27T05:11:19.598Z,19.23
2019-04-27T05:13:49.407Z,13.93
2019-04-27T05:16:18.881Z,16.47
2019-04-27T05:18:49.418Z,21.37
2019-04-27T05:21:32.016Z,19.23
2019-04-27T05:24:00.901Z,13.27
2019-04-27T05:45:03.874Z,25.60
2019-04-27T05:47:51.838Z,19.17
2019-04-27T05:50:21.997Z,21.90
2019-04-27T05:52:49.835Z,23.70
2019-04-27T05:55:19.187Z,20.93
2019-04-27T05:57:49.032Z,16.70
2019-04-27T06:00:19.450Z,19.63
2019-04-27T06:02:48.758Z,19.97
2019-04-27T06:05:19.003Z,20.20
2019-04-27T06:07:48.799Z,20.50
2019-04-27T06:10:19.666Z,22.30
2019-04-27T06:12:48.659Z,18.50
2019-04-27T06:15:17.358Z,21.33
2019-04-27T06:17:46.080Z,23.90
2019-04-27T06:20:14.813Z,26.50
2019-04-27T06:22:43.444Z,31.60
2019-04-27T06:25:12.188Z,25.67
2019-04-27T06:27:40.872Z,33.00
2019-04-27T06:30:09.779Z,21.23
2019-04-27T06:32:39.556Z,20.70
2019-04-27T06:35:09.152Z,17.73
2019-04-27T06:37:39.010Z,37.23
2019-04-27T06:40:09.648Z,24.33
2019-04-27T07:01:53.838Z,28.40
2019-04-27T07:04:22.532Z,27.57
2019-04-27T07:06:55.845Z,16.60
2019-04-27T07:09:21.616Z,25.93
2019-04-27T07:11:50.310Z,20.67
2019-04-27T07:14:19.682Z,19.53
2019-04-27T07:16:48.820Z,34.40
2019-04-27T07:19:19.152Z,27.03
2019-04-27T07:21:49.652Z,19.87
2019-04-27T07:24:19.663Z,26.33
2019-04-27T07:26:48.920Z,17.37
2019-04-27T07:29:19.460Z,29.27
2019-04-27T07:31:49.583Z,28.10
2019-04-27T07:34:18.998Z,24.57
2019-04-27T07:36:49.133Z,21.57
2019-04-27T07:39:19.206Z,22.97
2019-04-27T07:41:48.810Z,17.93
2019-04-27T07:44:25.042Z,17.77
2019-04-27T07:47:11.386Z,20.13
2019-04-27T07:49:40.045Z,27.40
2019-04-27T07:52:08.811Z,27.13
2019-04-27T07:54:38.518Z,20.03
2019-04-27T07:57:09.726Z,22.27
2019-04-27T07:59:41.495Z,27.03
2019-04-27T08:02:10.957Z,21.63
2019-04-27T08:04:40.038Z,18.30
2019-04-27T08:07:09.214Z,22.23
2019-04-27T08:09:39.614Z,19.53
2019-04-27T08:12:08.529Z,23.27
2019-04-27T08:14:38.459Z,21.37
2019-04-27T08:17:07.220Z,20.23
2019-04-27T08:19:35.958Z,20.30
2019-04-27T08:22:04.587Z,20.93
2019-04-27T08:24:33.275Z,24.70
2019-04-27T08:27:19.619Z,19.03
2019-04-27T08:29:49.885Z,20.60
2019-04-27T08:32:20.149Z,20.13
2019-04-27T08:34:49.615Z,24.37
2019-04-27T08:37:18.825Z,16.93
2019-04-27T08:39:49.578Z,19.77
2019-04-27T08:42:19.438Z,19.30
2019-04-27T08:44:49.682Z,20.80
2019-04-27T08:47:19.463Z,15.23
2019-04-27T08:49:49.152Z,15.00
2019-04-27T08:52:19.378Z,17.27
2019-04-27T08:54:49.355Z,17.73
2019-04-27T08:57:18.940Z,17.30
2019-04-27T08:59:48.959Z,32.27
2019-04-27T09:02:19.626Z,16.77
2019-04-27T09:04:49.553Z,18.17
2019-04-27T09:07:32.175Z,28.63
2019-04-27T09:10:08.687Z,31.30
2019-04-27T09:12:53.961Z,29.20
2019-04-27T09:15:24.228Z,18.83
2019-04-27T09:17:54.484Z,31.20
2019-04-27T09:20:24.746Z,15.63
2019-04-27T09:22:53.407Z,18.37
2019-04-27T09:25:22.127Z,19.07
2019-04-27T09:27:50.814Z,22.80
2019-04-27T09:30:19.545Z,25.47
2019-04-27T09:32:48.260Z,21.97
2019-04-27T09:35:16.930Z,19.67
2019-04-27T09:37:45.936Z,21.27
2019-04-27T09:40:14.856Z,18.70
2019-04-27T09:42:43.558Z,14.70
2019-04-27T09:45:12.482Z,25.97
2019-04-27T09:47:41.116Z,23.50
2019-04-27T09:50:10.315Z,15.67
2019-04-27T09:52:39.043Z,23.83
2019-04-27T09:55:08.935Z,23.50
2019-04-27T09:57:37.575Z,20.60
2019-04-27T10:00:12.029Z,14.27
2019-04-27T10:02:40.718Z,16.53
2019-04-27T10:05:09.607Z,12.53
2019-04-27T10:07:38.343Z,18.33
2019-04-27T10:10:07.728Z,17.07
2019-04-27T10:12:36.985Z,19.00
2019-04-27T10:15:06.660Z,18.97
2019-04-27T10:17:35.346Z,18.20
2019-04-27T10:20:05.967Z,13.93
2019-04-27T10:22:41.305Z,16.77
2019-04-27T10:25:08.046Z,19.17
2019-04-27T10:27:36.673Z,22.07
2019-04-27T10:30:08.932Z,16.20
2019-04-27T10:32:37.632Z,18.90
2019-04-27T10:35:07.852Z,15.93
2019-04-27T10:37:36.604Z,21.00
2019-04-27T10:40:06.303Z,15.77
2019-04-27T10:42:35.813Z,25.43
2019-04-27T10:45:08.095Z,11.70
2019-04-27T10:47:36.718Z,16.03
2019-04-27T10:50:06.919Z,21.67
2019-04-27T10:52:35.660Z,29.13
2019-04-27T10:55:05.953Z,19.60
2019-04-27T10:57:34.836Z,20.10
2019-04-27T11:00:06.587Z,14.73
2019-04-27T11:02:35.446Z,19.10
2019-04-27T11:05:10.197Z,16.93
2019-04-27T11:07:39.884Z,21.17
2019-04-27T11:10:08.686Z,21.00
2019-04-27T11:12:37.437Z,24.83
2019-04-27T11:15:08.626Z,18.90
2019-04-27T11:17:37.333Z,22.87
2019-04-27T11:20:08.127Z,18.53
2019-04-27T11:22:36.835Z,16.10
2019-04-27T11:25:07.933Z,20.77
2019-04-27T11:27:36.655Z,19.87
2019-04-27T11:30:08.253Z,18.30
2019-04-27T11:32:37.075Z,23.30
2019-04-27T11:35:20.524Z,17.70
2019-04-27T11:37:50.882Z,24.37
2019-04-27T11:40:21.786Z,18.70
2019-04-27T11:42:50.628Z,15.63
2019-04-27T11:45:19.437Z,16.07
2019-04-27T11:47:48.130Z,14.67
2019-04-27T11:50:18.661Z,25.40
2019-04-27T11:52:47.551Z,21.03
2019-04-27T11:55:16.858Z,16.37
2019-04-27T11:57:47.043Z,12.40
2019-04-27T12:00:19.258Z,13.00
2019-04-27T12:02:47.951Z,12.83
2019-04-27T12:05:16.878Z,12.07
2019-04-27T12:07:47.473Z,9.27
2019-04-27T12:10:16.277Z,7.97
2019-04-27T12:12:46.366Z,11.60
2019-04-27T12:15:16.370Z,8.50
2019-04-27T12:17:46.115Z,11.03
2019-04-27T12:20:15.923Z,10.47
2019-04-27T12:22:45.523Z,20.23
2019-04-27T12:25:15.723Z,19.80
2019-04-27T12:28:02.233Z,9.53
2019-04-27T12:30:32.489Z,16.70
2019-04-27T12:33:01.183Z,14.03
2019-04-27T12:35:29.911Z,12.83
2019-04-27T12:37:58.609Z,26.73
2019-04-27T12:40:27.304Z,12.63
2019-04-27T12:42:56.046Z,18.50
2019-04-27T12:45:26.557Z,17.63
2019-04-27T12:47:56.612Z,12.73
2019-04-27T12:50:26.082Z,14.10
2019-04-27T12:52:59.439Z,12.03
2019-04-27T12:55:38.884Z,12.20
2019-04-27T12:58:09.145Z,15.07
2019-04-27T13:00:39.488Z,17.23
2019-04-27T13:03:08.215Z,17.27
2019-04-27T13:05:36.907Z,16.73
2019-04-27T13:08:05.604Z,10.73
2019-04-27T13:10:34.335Z,16.10
2019-04-27T13:13:03.023Z,16.70
2019-04-27T13:15:31.716Z,20.13
2019-04-27T13:18:00.378Z,30.87
2019-04-27T13:20:29.086Z,21.60
2019-04-27T13:22:57.776Z,30.47
2019-04-27T13:25:26.519Z,16.77
2019-04-27T13:27:56.712Z,15.43
2019-04-27T13:30:25.882Z,15.80
2019-04-27T13:32:56.223Z,19.83
2019-04-27T13:35:25.854Z,13.87
2019-04-27T13:37:55.943Z,9.53
2019-04-27T13:40:25.888Z,15.13
2019-04-27T13:43:11.095Z,15.90
2019-04-27T13:45:44.126Z,15.10
2019-04-27T13:48:32.265Z,21.13
2019-04-27T13:51:17.478Z,9.57
2019-04-27T13:53:46.184Z,19.37
2019-04-27T13:56:14.826Z,15.43
2019-04-27T13:58:44.253Z,12.93
2019-04-27T14:01:12.951Z,9.67
2019-04-27T14:03:41.679Z,12.80
2019-04-27T14:06:10.411Z,14.40
2019-04-27T14:08:39.120Z,13.53
2019-04-27T14:11:09.563Z,8.87
2019-04-27T14:13:39.115Z,12.57
2019-04-27T14:16:08.753Z,15.60
2019-04-27T14:18:38.484Z,12.67
2019-04-27T14:21:09.292Z,22.27
2019-04-27T14:23:38.551Z,17.50
2019-04-27T14:26:08.791Z,16.03
2019-04-27T14:28:37.657Z,25.73
2019-04-27T14:31:06.355Z,16.13
2019-04-27T14:33:35.051Z,14.43
2019-04-27T14:36:03.845Z,14.80
2019-04-27T14:38:32.536Z,11.27
2019-04-27T14:41:01.233Z,14.47
2019-04-27T14:43:29.957Z,11.87
2019-04-27T14:45:58.675Z,19.27
2019-04-27T14:48:29.303Z,6.57
2019-04-27T14:50:59.056Z,12.50
2019-04-27T14:53:28.295Z,13.13
2019-04-27T14:55:58.479Z,10.00
2019-04-27T14:58:28.296Z,4.27
2019-04-27T15:00:58.557Z,4.03
2019-04-27T15:03:27.290Z,6.13
2019-04-27T15:05:56.213Z,5.70
2019-04-27T15:08:25.572Z,3.27
2019-04-27T15:10:54.499Z,6.03
2019-04-27T15:13:23.213Z,3.27
2019-04-27T15:15:51.973Z,4.43
2019-04-27T15:18:20.681Z,5.97
2019-04-27T15:20:49.415Z,6.77
2019-04-27T15:23:20.018Z,4.33
2019-04-27T15:25:50.003Z,4.80
2019-04-27T15:28:23.143Z,4.73
2019-04-27T15:30:53.403Z,9.87
2019-04-27T15:33:39.940Z,13.10
2019-04-27T15:36:10.415Z,7.57
2019-04-27T15:38:47.720Z,5.87
2019-04-27T15:41:31.619Z,5.83
2019-04-27T15:44:05.703Z,7.27
2019-04-27T15:46:33.818Z,12.57
2019-04-27T15:49:07.016Z,6.40
2019-04-27T15:51:33.243Z,9.60
2019-04-27T15:54:02.128Z,12.03
2019-04-27T15:56:35.158Z,7.83
2019-04-27T15:59:01.262Z,7.63
2019-04-27T16:01:35.766Z,10.00
2019-04-27T16:04:02.444Z,10.30
2019-04-27T16:06:30.944Z,6.63
2019-04-27T16:08:59.656Z,9.17
2019-04-27T16:11:28.381Z,7.33
2019-04-27T16:13:58.650Z,6.17
2019-04-27T16:16:29.129Z,6.30
2019-04-27T16:18:59.429Z,6.40
2019-04-27T16:21:31.387Z,3.90
2019-04-27T16:23:58.699Z,7.03
2019-04-27T16:26:28.554Z,6.77
2019-04-27T16:28:58.111Z,8.67
2019-04-27T16:31:31.479Z,6.30
2019-04-27T16:33:59.101Z,6.50
2019-04-27T16:36:28.852Z,5.57
2019-04-27T16:38:59.130Z,5.83
2019-04-27T16:41:28.192Z,6.40
2019-04-27T16:43:58.186Z,7.53
2019-04-27T16:46:28.495Z,7.27
2019-04-27T16:48:59.290Z,7.00
2019-04-27T16:51:29.690Z,5.37
2019-04-27T16:53:58.425Z,8.07
2019-04-27T16:56:28.656Z,4.93
2019-04-27T16:59:11.503Z,4.23
2019-04-27T17:01:30.395Z,4.33
2019-04-27T17:03:59.554Z,5.10
2019-04-27T17:06:29.654Z,6.33
2019-04-27T17:09:05.623Z,6.77
2019-04-27T17:11:29.790Z,6.63
2019-04-27T17:14:00.221Z,4.67
2019-04-27T17:16:34.082Z,3.47
2019-04-27T17:19:19.226Z,3.07
2019-04-27T17:21:48.529Z,4.50
2019-04-27T17:24:21.098Z,4.70
2019-04-27T17:26:49.817Z,2.50
2019-04-27T17:29:20.449Z,3.20
2019-04-27T17:31:55.206Z,5.10
2019-04-27T17:34:25.203Z,3.87
2019-04-27T17:36:54.627Z,5.60
2019-04-27T17:39:23.511Z,4.70
2019-04-27T17:41:52.959Z,8.10
2019-04-27T17:44:23.110Z,6.80
2019-04-27T17:46:52.062Z,6.53
2019-04-27T17:49:20.783Z,7.90
2019-04-27T17:51:49.474Z,4.27
2019-04-27T17:54:18.296Z,5.37
2019-04-27T17:56:49.577Z,9.27
2019-04-27T17:59:20.685Z,6.57
2019-04-27T18:01:49.542Z,5.57
2019-04-27T18:04:18.611Z,6.27
2019-04-27T18:06:48.384Z,5.43
2019-04-27T18:09:18.776Z,7.30
2019-04-27T18:11:48.564Z,7.07
2019-04-27T18:14:19.294Z,8.57
2019-04-27T18:16:48.255Z,6.93
2019-04-27T18:19:21.439Z,4.37
2019-04-27T18:22:01.079Z,5.73
2019-04-27T18:24:31.413Z,4.97
2019-04-27T18:27:04.330Z,6.50
2019-04-27T18:29:32.103Z,9.87
2019-04-27T18:32:00.834Z,6.17
2019-04-27T18:34:29.526Z,7.37
2019-04-27T18:36:58.208Z,6.67
2019-04-27T18:39:26.943Z,7.50
2019-04-27T18:41:55.641Z,8.43
2019-04-27T18:44:29.288Z,9.33
2019-04-27T18:46:58.833Z,6.07
2019-04-27T18:49:30.114Z,8.47
2019-04-27T18:52:15.455Z,9.90
2019-04-27T18:54:44.144Z,9.17
2019-04-27T18:57:15.153Z,7.10
2019-04-27T18:59:43.218Z,10.57
2019-04-27T19:02:11.914Z,9.60
2019-04-27T19:04:40.523Z,11.33
2019-04-27T19:07:09.269Z,9.13
2019-04-27T19:09:37.975Z,10.43
2019-04-27T19:12:06.674Z,10.53
2019-04-27T19:14:35.394Z,8.03
2019-04-27T19:17:04.408Z,8.67
2019-04-27T19:19:33.109Z,9.10
2019-04-27T19:22:01.764Z,8.00
2019-04-27T19:24:30.455Z,8.67
2019-04-27T19:27:00.714Z,9.30
2019-04-27T19:29:31.012Z,9.23
2019-04-27T19:32:01.277Z,10.60
2019-04-27T19:34:29.981Z,11.00
2019-04-27T19:36:59.312Z,10.80
2019-04-27T19:39:28.570Z,13.97
2019-04-27T19:42:01.383Z,14.73
2019-04-27T19:44:29.245Z,19.60
2019-04-27T19:46:59.950Z,16.43
2019-04-27T19:49:29.379Z,13.97
2019-04-27T19:51:58.981Z,8.70
2019-04-27T19:54:29.945Z,8.03
2019-04-27T19:56:59.557Z,8.30
2019-04-27T19:59:32.962Z,7.13
2019-04-27T20:02:03.226Z,9.73
2019-04-27T20:04:36.449Z,9.13
2019-04-27T20:07:05.390Z,8.57
2019-04-27T20:09:50.542Z,6.57
2019-04-27T20:12:21.116Z,5.67
2019-04-27T20:14:55.632Z,11.37
2019-04-27T20:17:26.717Z,6.17
2019-04-27T20:19:56.218Z,5.77
2019-04-27T20:22:25.009Z,10.57
2019-04-27T20:24:53.777Z,6.53
2019-04-27T20:27:22.456Z,5.37
2019-04-27T20:29:51.356Z,8.37
2019-04-27T20:32:21.535Z,5.77
2019-04-27T20:34:51.299Z,6.30
2019-04-27T20:37:21.000Z,8.23
2019-04-27T20:39:51.437Z,4.33
2019-04-27T20:42:21.177Z,4.43
2019-04-27T20:44:51.661Z,6.40
2019-04-27T20:47:20.585Z,9.10
2019-04-27T20:49:49.269Z,6.77
2019-04-27T20:52:25.661Z,4.77
2019-04-27T20:54:54.285Z,4.77
2019-04-27T20:57:22.978Z,5.57
2019-04-27T20:59:52.344Z,4.23
2019-04-27T21:02:34.605Z,7.67
2019-04-27T21:05:21.184Z,10.20
2019-04-27T21:08:01.448Z,5.27
2019-04-27T21:10:30.773Z,5.00
2019-04-27T21:13:01.022Z,6.00
2019-04-27T21:15:31.419Z,6.93
2019-04-27T21:18:01.269Z,16.83
2019-04-27T21:20:30.956Z,11.60
2019-04-27T21:23:01.795Z,10.83
2019-04-27T21:25:31.506Z,7.60
2019-04-27T21:28:14.975Z,3.50
2019-04-27T21:30:31.394Z,5.67
2019-04-27T21:33:01.083Z,8.90
2019-04-27T21:35:29.941Z,2.93
2019-04-27T21:37:58.625Z,5.40
2019-04-27T21:40:27.355Z,2.30
2019-04-27T21:42:56.059Z,5.63
2019-04-27T21:45:24.681Z,3.80
2019-04-27T21:47:53.403Z,2.20
2019-04-27T21:50:23.184Z,5.30
2019-04-27T21:53:11.039Z,5.93
2019-04-27T21:55:39.877Z,6.10
2019-04-27T21:58:08.572Z,2.93
2019-04-27T22:00:43.120Z,6.87
2019-04-27T22:03:13.661Z,2.73
2019-04-27T22:05:42.371Z,3.10
2019-04-27T22:08:11.775Z,3.53
2019-04-27T22:10:40.515Z,5.63
2019-04-27T22:13:09.203Z,5.83
2019-04-27T22:15:37.940Z,6.73
2019-04-27T22:18:06.617Z,3.03
2019-04-27T22:20:35.913Z,5.70
2019-04-27T22:23:08.935Z,3.27
2019-04-27T22:25:38.819Z,5.03
2019-04-27T22:28:07.441Z,4.13
2019-04-27T22:30:36.376Z,7.47
2019-04-27T22:33:05.058Z,5.53
2019-04-27T22:35:33.756Z,7.13
2019-04-27T22:38:02.421Z,5.93
2019-04-27T22:40:41.974Z,6.23
2019-04-27T22:43:27.261Z,7.47
2019-04-27T22:45:56.549Z,2.90
2019-04-27T22:48:25.256Z,1.97
2019-04-27T22:50:53.982Z,4.30
2019-04-27T22:53:22.667Z,2.97
2019-04-27T22:56:08.929Z,5.07
2019-04-27T22:58:40.656Z,2.03
2019-04-27T23:01:27.006Z,7.80
2019-04-27T23:03:57.253Z,9.47
2019-04-27T23:06:25.873Z,5.23
2019-04-27T23:08:54.530Z,4.13
2019-04-27T23:11:23.218Z,3.50
2019-04-27T23:13:52.530Z,5.67
2019-04-27T23:16:22.802Z,3.30
2019-04-27T23:18:51.618Z,6.17
2019-04-27T23:21:20.871Z,3.50
2019-04-27T23:23:51.588Z,7.27
2019-04-27T23:26:21.143Z,6.43
2019-04-27T23:28:51.395Z,7.70
2019-04-27T23:31:27.823Z,4.70
2019-04-27T23:33:56.513Z,5.50
2019-04-27T23:36:25.210Z,5.97
2019-04-27T23:38:53.949Z,10.63
2019-04-27T23:41:22.564Z,7.50
2019-04-27T23:43:51.251Z,5.37
2019-04-27T23:46:21.477Z,4.33
2019-04-27T23:48:52.064Z,4.13
2019-04-27T23:51:31.233Z,7.10
2019-04-27T23:54:01.589Z,2.27
2019-04-27T23:56:31.803Z,3.37
2019-04-27T23:59:00.631Z,6.47
